Vilnius, Baltarusija

06:46 PM +03 on balandžio 26, 2017 (GMT +0300)
Vilnius International | | Change Station

Elev 512 ft 54.63 °N, 25.28 °E | Updated 26 minutes ago

Debesuotumas
Debesuotumas
46 °F
Feels Like 42 °F
N
9
Vėjas nepastovus Vėjas from Vakarų

Šiandien
High -- | Low -- °F
--% Chance of Precip.
Yesterday
High -- | Low -- °F
Precip. -- in
Slėgis 29.83 in
Matomumas 6.2 mylios
Debesys Mažai debesuota 4500 ft
Debesuota 12000 ft
Šaltas vėjas 42 °F
Rasos taškas 27 °F
Drėgmė 46%
Krituliai 0.00 in
Sniego dangos storis Not available.
5:49 AM 8:40 PM
Jaunatis, 0% visible
METAR EYVI 261520Z 26008KT 230V290 9999 SCT045 BKN120 08/M03 Q1010 NOSIG
Slėgis 29.83 in
Matomumas 6.2 mylios
Debesys Mažai debesuota 4500 ft
Debesuota 12000 ft
Šaltas vėjas 42 °F
Rasos taškas 27 °F
Drėgmė 46%
Krituliai 0.00 in
Sniego dangos storis Not available.
5:49 AM 8:40 PM
Jaunatis, 0% visible
METAR EYVI 261520Z 26008KT 230V290 9999 SCT045 BKN120 08/M03 Q1010 NOSIG

Get Severe Weather Alerts

Thanks for signing up!

Be on the lookout for a verification email in your inbox.

You'll start receiving the daily forecast at 8 AM.

×

10-Day Weather Forecast

×

Almanac

Astronomija

Apr. 26, 2017 Rise Set
Vietos laikas
Dienos šviesa
Jūrinė diena
Astronominė diena
Mėnulis
Matomos šviesos trukmė
Dienos ilgis
Tomorrow will be .
, % of the Moon is Illuminated

Šiandienos maksimumai

Country Highs Country Lows

Community

WunderPhotos

WunderBlog® & News

Nearby

Air Quality

  Air Quality AQ Index Pollutant
Not available.

Sniego danga

Station Depth Elevation

Earthquake Activity

Miestas Distance Mag. Time & Date
Minimum magnitude displayed is 2.5.

Coastal Water Temperatures

Vieta Temperatūra

Stations

Nearby Weather Stations

Station Location Temp Šaltas vėjas Rasos taškas Drėgmė Vėjas Precip. Elev Duomenys papildyti Type